sensor_id;sensor_type;location;lat;lon;timestamp;P1;durP1;ratioP1;P2;durP2;ratioP2
13981;SDS011;7065;50.880;5.502;2023-12-28T00:00:28;2.60;;;2.40;;
13981;SDS011;7065;50.880;5.502;2023-12-28T00:02:54;3.38;;;2.28;;
13981;SDS011;7065;50.880;5.502;2023-12-28T00:05:19;2.72;;;2.22;;
13981;SDS011;7065;50.880;5.502;2023-12-28T00:07:45;3.22;;;2.90;;
13981;SDS011;7065;50.880;5.502;2023-12-28T00:10:11;2.75;;;2.30;;
13981;SDS011;7065;50.880;5.502;2023-12-28T00:12:36;3.25;;;2.33;;
13981;SDS011;7065;50.880;5.502;2023-12-28T00:15:02;2.67;;;2.20;;
13981;SDS011;7065;50.880;5.502;2023-12-28T00:17:28;4.70;;;2.42;;
13981;SDS011;7065;50.880;5.502;2023-12-28T00:19:53;3.00;;;2.70;;
13981;SDS011;7065;50.880;5.502;2023-12-28T00:22:19;3.42;;;2.67;;
13981;SDS011;7065;50.880;5.502;2023-12-28T00:24:45;3.28;;;2.20;;
13981;SDS011;7065;50.880;5.502;2023-12-28T00:27:11;3.50;;;2.38;;
13981;SDS011;7065;50.880;5.502;2023-12-28T00:29:36;2.40;;;2.20;;
13981;SDS011;7065;50.880;5.502;2023-12-28T00:32:07;4.50;;;2.42;;
13981;SDS011;7065;50.880;5.502;2023-12-28T00:34:33;3.05;;;2.40;;
13981;SDS011;7065;50.880;5.502;2023-12-28T00:36:58;3.13;;;2.63;;
13981;SDS011;7065;50.880;5.502;2023-12-28T00:39:24;3.60;;;3.00;;
13981;SDS011;7065;50.880;5.502;2023-12-28T00:41:50;4.03;;;2.88;;
13981;SDS011;7065;50.880;5.502;2023-12-28T00:44:15;3.30;;;2.78;;
13981;SDS011;7065;50.880;5.502;2023-12-28T00:46:41;3.95;;;2.90;;
13981;SDS011;7065;50.880;5.502;2023-12-28T00:49:07;4.68;;;2.95;;
13981;SDS011;7065;50.880;5.502;2023-12-28T00:51:33;3.05;;;2.53;;
13981;SDS011;7065;50.880;5.502;2023-12-28T00:53:59;5.18;;;3.22;;
13981;SDS011;7065;50.880;5.502;2023-12-28T00:56:25;3.58;;;2.70;;
13981;SDS011;7065;50.880;5.502;2023-12-28T00:58:50;3.03;;;2.83;;
13981;SDS011;7065;50.880;5.502;2023-12-28T01:01:16;3.08;;;2.72;;
13981;SDS011;7065;50.880;5.502;2023-12-28T01:03:42;4.05;;;2.70;;
13981;SDS011;7065;50.880;5.502;2023-12-28T01:06:08;3.47;;;3.00;;
13981;SDS011;7065;50.880;5.502;2023-12-28T01:08:33;4.82;;;3.15;;
13981;SDS011;7065;50.880;5.502;2023-12-28T01:10:59;3.45;;;2.95;;
13981;SDS011;7065;50.880;5.502;2023-12-28T01:13:26;3.35;;;2.80;;
13981;SDS011;7065;50.880;5.502;2023-12-28T01:15:53;4.63;;;3.25;;
13981;SDS011;7065;50.880;5.502;2023-12-28T01:18:19;4.03;;;3.28;;
13981;SDS011;7065;50.880;5.502;2023-12-28T01:20:45;4.38;;;3.30;;
13981;SDS011;7065;50.880;5.502;2023-12-28T01:23:11;3.72;;;3.15;;
13981;SDS011;7065;50.880;5.502;2023-12-28T01:25:37;4.85;;;3.13;;
13981;SDS011;7065;50.880;5.502;2023-12-28T01:28:03;3.03;;;2.83;;
13981;SDS011;7065;50.880;5.502;2023-12-28T01:30:29;4.30;;;2.97;;
13981;SDS011;7065;50.880;5.502;2023-12-28T01:32:56;4.53;;;3.40;;
13981;SDS011;7065;50.880;5.502;2023-12-28T01:35:22;4.07;;;3.03;;
13981;SDS011;7065;50.880;5.502;2023-12-28T01:37:47;5.63;;;3.35;;
13981;SDS011;7065;50.880;5.502;2023-12-28T01:40:13;4.63;;;2.83;;
13981;SDS011;7065;50.880;5.502;2023-12-28T01:42:40;3.72;;;3.17;;
13981;SDS011;7065;50.880;5.502;2023-12-28T01:45:06;4.78;;;3.33;;
13981;SDS011;7065;50.880;5.502;2023-12-28T01:47:32;5.07;;;3.17;;
13981;SDS011;7065;50.880;5.502;2023-12-28T01:49:58;4.38;;;3.40;;
13981;SDS011;7065;50.880;5.502;2023-12-28T01:52:25;3.63;;;3.33;;
13981;SDS011;7065;50.880;5.502;2023-12-28T01:54:52;4.50;;;3.30;;
13981;SDS011;7065;50.880;5.502;2023-12-28T01:57:18;3.33;;;3.03;;
13981;SDS011;7065;50.880;5.502;2023-12-28T01:59:44;4.38;;;3.45;;
13981;SDS011;7065;50.880;5.502;2023-12-28T02:02:10;3.70;;;3.13;;
13981;SDS011;7065;50.880;5.502;2023-12-28T02:04:37;3.75;;;3.20;;
13981;SDS011;7065;50.880;5.502;2023-12-28T02:07:03;4.72;;;3.33;;
13981;SDS011;7065;50.880;5.502;2023-12-28T02:09:29;3.70;;;3.10;;
13981;SDS011;7065;50.880;5.502;2023-12-28T02:11:55;5.10;;;3.60;;
13981;SDS011;7065;50.880;5.502;2023-12-28T02:14:21;4.60;;;3.60;;
13981;SDS011;7065;50.880;5.502;2023-12-28T02:16:50;4.18;;;3.40;;
13981;SDS011;7065;50.880;5.502;2023-12-28T02:19:41;5.45;;;3.30;;
13981;SDS011;7065;50.880;5.502;2023-12-28T02:22:22;5.22;;;2.90;;
13981;SDS011;7065;50.880;5.502;2023-12-28T02:27:32;4.63;;;3.30;;
13981;SDS011;7065;50.880;5.502;2023-12-28T02:29:59;4.32;;;3.28;;
13981;SDS011;7065;50.880;5.502;2023-12-28T02:32:31;4.95;;;3.20;;
13981;SDS011;7065;50.880;5.502;2023-12-28T02:35:04;5.05;;;3.42;;
13981;SDS011;7065;50.880;5.502;2023-12-28T02:37:39;5.22;;;3.05;;
13981;SDS011;7065;50.880;5.502;2023-12-28T02:40:05;3.28;;;2.88;;
13981;SDS011;7065;50.880;5.502;2023-12-28T02:42:32;3.70;;;3.20;;
13981;SDS011;7065;50.880;5.502;2023-12-28T02:44:58;6.40;;;3.40;;
13981;SDS011;7065;50.880;5.502;2023-12-28T02:47:24;7.47;;;3.38;;
13981;SDS011;7065;50.880;5.502;2023-12-28T02:49:50;3.72;;;2.95;;
13981;SDS011;7065;50.880;5.502;2023-12-28T02:52:16;4.18;;;2.92;;
13981;SDS011;7065;50.880;5.502;2023-12-28T02:54:41;6.18;;;3.28;;
13981;SDS011;7065;50.880;5.502;2023-12-28T02:57:07;4.78;;;3.00;;
13981;SDS011;7065;50.880;5.502;2023-12-28T02:59:32;3.83;;;2.50;;
13981;SDS011;7065;50.880;5.502;2023-12-28T03:01:58;5.00;;;2.97;;
13981;SDS011;7065;50.880;5.502;2023-12-28T03:04:24;4.55;;;2.95;;
13981;SDS011;7065;50.880;5.502;2023-12-28T03:06:49;4.13;;;2.95;;
13981;SDS011;7065;50.880;5.502;2023-12-28T03:09:15;3.38;;;2.70;;
13981;SDS011;7065;50.880;5.502;2023-12-28T03:11:41;3.72;;;2.60;;
13981;SDS011;7065;50.880;5.502;2023-12-28T03:14:07;4.88;;;2.95;;
13981;SDS011;7065;50.880;5.502;2023-12-28T03:16:33;4.05;;;2.70;;
13981;SDS011;7065;50.880;5.502;2023-12-28T03:18:59;4.30;;;2.70;;
13981;SDS011;7065;50.880;5.502;2023-12-28T03:21:24;5.82;;;3.08;;
13981;SDS011;7065;50.880;5.502;2023-12-28T03:23:50;5.50;;;2.97;;
13981;SDS011;7065;50.880;5.502;2023-12-28T03:26:16;3.95;;;2.95;;
13981;SDS011;7065;50.880;5.502;2023-12-28T03:28:41;5.47;;;2.90;;
13981;SDS011;7065;50.880;5.502;2023-12-28T03:31:07;4.32;;;2.50;;
13981;SDS011;7065;50.880;5.502;2023-12-28T03:33:33;5.40;;;2.40;;
13981;SDS011;7065;50.880;5.502;2023-12-28T03:35:58;6.43;;;2.55;;
13981;SDS011;7065;50.880;5.502;2023-12-28T03:38:24;4.85;;;2.75;;
13981;SDS011;7065;50.880;5.502;2023-12-28T03:40:50;4.40;;;2.60;;
13981;SDS011;7065;50.880;5.502;2023-12-28T03:43:16;2.85;;;2.38;;
13981;SDS011;7065;50.880;5.502;2023-12-28T03:45:42;4.60;;;2.85;;
13981;SDS011;7065;50.880;5.502;2023-12-28T03:48:08;5.25;;;2.42;;
13981;SDS011;7065;50.880;5.502;2023-12-28T03:50:34;3.13;;;2.63;;
13981;SDS011;7065;50.880;5.502;2023-12-28T03:53:00;7.03;;;2.60;;
13981;SDS011;7065;50.880;5.502;2023-12-28T03:55:26;5.60;;;2.78;;
13981;SDS011;7065;50.880;5.502;2023-12-28T03:57:51;3.03;;;2.30;;
13981;SDS011;7065;50.880;5.502;2023-12-28T04:00:17;4.32;;;2.83;;
13981;SDS011;7065;50.880;5.502;2023-12-28T04:02:43;4.85;;;2.47;;
13981;SDS011;7065;50.880;5.502;2023-12-28T04:05:09;5.75;;;2.78;;
13981;SDS011;7065;50.880;5.502;2023-12-28T04:07:34;6.97;;;2.58;;
13981;SDS011;7065;50.880;5.502;2023-12-28T04:10:00;5.80;;;2.90;;
13981;SDS011;7065;50.880;5.502;2023-12-28T04:12:26;5.90;;;2.53;;
13981;SDS011;7065;50.880;5.502;2023-12-28T04:14:53;4.28;;;2.60;;
13981;SDS011;7065;50.880;5.502;2023-12-28T04:17:18;2.70;;;2.22;;
13981;SDS011;7065;50.880;5.502;2023-12-28T04:19:44;6.43;;;2.85;;
13981;SDS011;7065;50.880;5.502;2023-12-28T04:22:10;3.80;;;2.20;;
13981;SDS011;7065;50.880;5.502;2023-12-28T04:24:36;6.07;;;2.60;;
13981;SDS011;7065;50.880;5.502;2023-12-28T04:27:02;4.38;;;2.47;;
13981;SDS011;7065;50.880;5.502;2023-12-28T04:29:28;5.28;;;2.60;;
13981;SDS011;7065;50.880;5.502;2023-12-28T04:31:53;7.55;;;2.28;;
13981;SDS011;7065;50.880;5.502;2023-12-28T04:34:20;6.72;;;2.63;;
13981;SDS011;7065;50.880;5.502;2023-12-28T04:36:46;5.20;;;2.25;;
13981;SDS011;7065;50.880;5.502;2023-12-28T04:39:13;3.40;;;2.35;;
13981;SDS011;7065;50.880;5.502;2023-12-28T04:41:39;5.57;;;2.60;;
13981;SDS011;7065;50.880;5.502;2023-12-28T04:44:05;5.28;;;2.47;;
13981;SDS011;7065;50.880;5.502;2023-12-28T04:46:30;7.03;;;2.42;;
13981;SDS011;7065;50.880;5.502;2023-12-28T04:48:56;6.72;;;2.40;;
13981;SDS011;7065;50.880;5.502;2023-12-28T04:51:21;6.10;;;2.72;;
13981;SDS011;7065;50.880;5.502;2023-12-28T04:53:47;3.17;;;2.00;;
13981;SDS011;7065;50.880;5.502;2023-12-28T04:56:17;5.85;;;2.42;;
13981;SDS011;7065;50.880;5.502;2023-12-28T04:58:43;5.90;;;2.55;;
13981;SDS011;7065;50.880;5.502;2023-12-28T05:01:09;5.05;;;2.05;;
13981;SDS011;7065;50.880;5.502;2023-12-28T05:03:34;4.75;;;2.67;;
13981;SDS011;7065;50.880;5.502;2023-12-28T05:06:01;6.05;;;2.30;;
13981;SDS011;7065;50.880;5.502;2023-12-28T05:08:27;4.35;;;2.47;;
13981;SDS011;7065;50.880;5.502;2023-12-28T05:10:53;6.07;;;2.50;;
13981;SDS011;7065;50.880;5.502;2023-12-28T05:13:19;6.95;;;2.33;;
13981;SDS011;7065;50.880;5.502;2023-12-28T05:15:45;6.07;;;2.28;;
13981;SDS011;7065;50.880;5.502;2023-12-28T05:18:10;6.50;;;2.55;;
13981;SDS011;7065;50.880;5.502;2023-12-28T05:20:36;4.55;;;2.40;;
13981;SDS011;7065;50.880;5.502;2023-12-28T05:23:02;4.00;;;2.15;;
13981;SDS011;7065;50.880;5.502;2023-12-28T05:25:28;5.35;;;2.70;;
13981;SDS011;7065;50.880;5.502;2023-12-28T05:27:53;5.38;;;2.60;;
13981;SDS011;7065;50.880;5.502;2023-12-28T05:30:19;5.70;;;2.60;;
13981;SDS011;7065;50.880;5.502;2023-12-28T05:32:45;3.95;;;2.13;;
13981;SDS011;7065;50.880;5.502;2023-12-28T05:35:10;5.40;;;2.20;;
13981;SDS011;7065;50.880;5.502;2023-12-28T05:37:36;8.27;;;2.72;;
13981;SDS011;7065;50.880;5.502;2023-12-28T05:40:02;6.82;;;2.05;;
13981;SDS011;7065;50.880;5.502;2023-12-28T05:42:27;6.45;;;2.58;;
13981;SDS011;7065;50.880;5.502;2023-12-28T05:44:53;4.70;;;2.17;;
13981;SDS011;7065;50.880;5.502;2023-12-28T05:47:19;8.63;;;2.95;;
13981;SDS011;7065;50.880;5.502;2023-12-28T05:49:44;8.95;;;2.58;;
13981;SDS011;7065;50.880;5.502;2023-12-28T05:52:11;7.32;;;1.88;;
13981;SDS011;7065;50.880;5.502;2023-12-28T05:54:39;7.07;;;2.33;;
13981;SDS011;7065;50.880;5.502;2023-12-28T05:57:05;9.05;;;2.58;;
13981;SDS011;7065;50.880;5.502;2023-12-28T05:59:31;7.43;;;2.38;;
13981;SDS011;7065;50.880;5.502;2023-12-28T06:01:57;6.57;;;2.22;;
13981;SDS011;7065;50.880;5.502;2023-12-28T06:04:22;8.48;;;2.47;;
13981;SDS011;7065;50.880;5.502;2023-12-28T06:06:48;7.15;;;2.10;;
13981;SDS011;7065;50.880;5.502;2023-12-28T06:09:13;7.50;;;2.30;;
13981;SDS011;7065;50.880;5.502;2023-12-28T06:11:39;7.53;;;2.35;;
13981;SDS011;7065;50.880;5.502;2023-12-28T06:14:05;5.72;;;2.15;;
13981;SDS011;7065;50.880;5.502;2023-12-28T06:16:30;5.68;;;2.30;;
13981;SDS011;7065;50.880;5.502;2023-12-28T06:18:58;11.13;;;2.40;;
13981;SDS011;7065;50.880;5.502;2023-12-28T06:21:24;8.95;;;2.45;;
13981;SDS011;7065;50.880;5.502;2023-12-28T06:23:50;7.18;;;2.88;;
13981;SDS011;7065;50.880;5.502;2023-12-28T06:26:15;7.82;;;2.97;;
13981;SDS011;7065;50.880;5.502;2023-12-28T06:28:41;12.32;;;2.70;;
13981;SDS011;7065;50.880;5.502;2023-12-28T06:31:07;8.80;;;2.50;;
13981;SDS011;7065;50.880;5.502;2023-12-28T06:33:33;12.20;;;2.72;;
13981;SDS011;7065;50.880;5.502;2023-12-28T06:36:04;7.78;;;2.47;;
13981;SDS011;7065;50.880;5.502;2023-12-28T06:38:30;6.43;;;1.95;;
13981;SDS011;7065;50.880;5.502;2023-12-28T06:40:56;8.75;;;2.05;;
13981;SDS011;7065;50.880;5.502;2023-12-28T06:43:22;6.68;;;2.30;;
13981;SDS011;7065;50.880;5.502;2023-12-28T06:45:48;10.10;;;2.70;;
13981;SDS011;7065;50.880;5.502;2023-12-28T06:48:13;9.35;;;2.35;;
13981;SDS011;7065;50.880;5.502;2023-12-28T06:50:39;12.13;;;2.67;;
13981;SDS011;7065;50.880;5.502;2023-12-28T06:53:05;6.78;;;2.10;;
13981;SDS011;7065;50.880;5.502;2023-12-28T06:55:30;9.07;;;2.50;;
13981;SDS011;7065;50.880;5.502;2023-12-28T06:57:56;11.95;;;2.58;;
13981;SDS011;7065;50.880;5.502;2023-12-28T07:00:22;9.02;;;2.33;;
13981;SDS011;7065;50.880;5.502;2023-12-28T07:02:47;8.90;;;2.70;;
13981;SDS011;7065;50.880;5.502;2023-12-28T07:05:13;9.30;;;2.22;;
13981;SDS011;7065;50.880;5.502;2023-12-28T07:07:39;8.55;;;2.53;;
13981;SDS011;7065;50.880;5.502;2023-12-28T07:10:04;6.50;;;2.28;;
13981;SDS011;7065;50.880;5.502;2023-12-28T07:12:31;8.75;;;2.53;;
13981;SDS011;7065;50.880;5.502;2023-12-28T07:14:57;9.85;;;2.20;;
13981;SDS011;7065;50.880;5.502;2023-12-28T07:17:23;7.22;;;2.70;;
13981;SDS011;7065;50.880;5.502;2023-12-28T07:19:48;5.85;;;2.90;;
13981;SDS011;7065;50.880;5.502;2023-12-28T07:22:14;11.30;;;2.63;;
13981;SDS011;7065;50.880;5.502;2023-12-28T07:24:39;10.35;;;2.35;;
13981;SDS011;7065;50.880;5.502;2023-12-28T07:27:05;7.70;;;2.50;;
13981;SDS011;7065;50.880;5.502;2023-12-28T07:29:31;12.38;;;3.33;;
13981;SDS011;7065;50.880;5.502;2023-12-28T07:31:57;11.93;;;2.72;;
13981;SDS011;7065;50.880;5.502;2023-12-28T07:34:22;6.03;;;2.42;;
13981;SDS011;7065;50.880;5.502;2023-12-28T07:36:48;11.18;;;2.45;;
13981;SDS011;7065;50.880;5.502;2023-12-28T07:39:14;7.70;;;2.47;;
13981;SDS011;7065;50.880;5.502;2023-12-28T07:41:40;8.57;;;2.33;;
13981;SDS011;7065;50.880;5.502;2023-12-28T07:44:05;12.40;;;2.90;;
13981;SDS011;7065;50.880;5.502;2023-12-28T07:46:31;8.50;;;2.60;;
13981;SDS011;7065;50.880;5.502;2023-12-28T07:48:56;5.72;;;2.00;;
13981;SDS011;7065;50.880;5.502;2023-12-28T07:51:22;12.48;;;2.65;;
13981;SDS011;7065;50.880;5.502;2023-12-28T07:53:48;8.32;;;2.65;;
13981;SDS011;7065;50.880;5.502;2023-12-28T07:56:14;10.00;;;3.08;;
13981;SDS011;7065;50.880;5.502;2023-12-28T07:58:40;6.95;;;2.20;;
13981;SDS011;7065;50.880;5.502;2023-12-28T08:01:11;12.60;;;2.53;;
13981;SDS011;7065;50.880;5.502;2023-12-28T08:03:37;11.52;;;3.20;;
13981;SDS011;7065;50.880;5.502;2023-12-28T08:06:03;10.02;;;2.70;;
13981;SDS011;7065;50.880;5.502;2023-12-28T08:08:29;8.43;;;2.55;;
13981;SDS011;7065;50.880;5.502;2023-12-28T08:10:55;10.23;;;2.75;;
13981;SDS011;7065;50.880;5.502;2023-12-28T08:13:20;4.82;;;2.22;;
13981;SDS011;7065;50.880;5.502;2023-12-28T08:15:46;10.32;;;2.53;;
13981;SDS011;7065;50.880;5.502;2023-12-28T08:18:12;10.05;;;2.22;;
13981;SDS011;7065;50.880;5.502;2023-12-28T08:20:37;11.88;;;1.92;;
13981;SDS011;7065;50.880;5.502;2023-12-28T08:23:03;8.73;;;2.70;;
13981;SDS011;7065;50.880;5.502;2023-12-28T08:25:29;9.05;;;2.78;;
13981;SDS011;7065;50.880;5.502;2023-12-28T08:27:55;10.00;;;2.60;;
13981;SDS011;7065;50.880;5.502;2023-12-28T08:30:20;9.68;;;2.38;;
13981;SDS011;7065;50.880;5.502;2023-12-28T08:32:47;10.80;;;2.78;;
13981;SDS011;7065;50.880;5.502;2023-12-28T08:35:12;6.30;;;2.45;;
13981;SDS011;7065;50.880;5.502;2023-12-28T08:37:38;6.28;;;2.38;;
13981;SDS011;7065;50.880;5.502;2023-12-28T08:40:04;7.18;;;2.40;;
13981;SDS011;7065;50.880;5.502;2023-12-28T08:42:30;14.55;;;2.95;;
13981;SDS011;7065;50.880;5.502;2023-12-28T08:44:56;12.82;;;2.95;;
13981;SDS011;7065;50.880;5.502;2023-12-28T08:47:22;12.63;;;3.05;;
13981;SDS011;7065;50.880;5.502;2023-12-28T08:49:47;9.40;;;2.35;;
13981;SDS011;7065;50.880;5.502;2023-12-28T08:52:13;9.82;;;2.35;;
13981;SDS011;7065;50.880;5.502;2023-12-28T08:54:39;8.90;;;2.33;;
13981;SDS011;7065;50.880;5.502;2023-12-28T08:57:06;11.52;;;2.38;;
13981;SDS011;7065;50.880;5.502;2023-12-28T08:59:35;13.90;;;2.85;;
13981;SDS011;7065;50.880;5.502;2023-12-28T09:02:04;16.65;;;3.30;;
13981;SDS011;7065;50.880;5.502;2023-12-28T09:04:32;11.43;;;2.38;;
13981;SDS011;7065;50.880;5.502;2023-12-28T09:06:58;11.13;;;2.55;;
13981;SDS011;7065;50.880;5.502;2023-12-28T09:09:23;10.18;;;2.35;;
13981;SDS011;7065;50.880;5.502;2023-12-28T09:11:49;11.88;;;2.70;;
13981;SDS011;7065;50.880;5.502;2023-12-28T09:14:16;11.88;;;2.20;;
13981;SDS011;7065;50.880;5.502;2023-12-28T09:16:41;7.28;;;2.40;;
13981;SDS011;7065;50.880;5.502;2023-12-28T09:19:09;10.02;;;2.33;;
13981;SDS011;7065;50.880;5.502;2023-12-28T09:21:34;11.15;;;3.03;;
13981;SDS011;7065;50.880;5.502;2023-12-28T09:24:00;8.77;;;2.30;;
13981;SDS011;7065;50.880;5.502;2023-12-28T09:26:26;11.40;;;2.70;;
13981;SDS011;7065;50.880;5.502;2023-12-28T09:28:52;9.80;;;2.58;;
13981;SDS011;7065;50.880;5.502;2023-12-28T09:31:17;13.15;;;2.80;;
13981;SDS011;7065;50.880;5.502;2023-12-28T09:33:43;10.55;;;2.95;;
13981;SDS011;7065;50.880;5.502;2023-12-28T09:36:09;11.05;;;2.80;;
13981;SDS011;7065;50.880;5.502;2023-12-28T09:38:37;11.32;;;2.45;;
13981;SDS011;7065;50.880;5.502;2023-12-28T09:41:10;11.80;;;2.63;;
13981;SDS011;7065;50.880;5.502;2023-12-28T09:43:41;8.45;;;2.15;;
13981;SDS011;7065;50.880;5.502;2023-12-28T09:46:18;10.05;;;2.40;;
13981;SDS011;7065;50.880;5.502;2023-12-28T09:48:44;12.18;;;2.22;;
13981;SDS011;7065;50.880;5.502;2023-12-28T09:51:10;8.68;;;2.88;;
13981;SDS011;7065;50.880;5.502;2023-12-28T09:53:36;10.75;;;2.67;;
13981;SDS011;7065;50.880;5.502;2023-12-28T09:56:02;10.80;;;2.60;;
13981;SDS011;7065;50.880;5.502;2023-12-28T09:58:29;9.55;;;2.53;;
13981;SDS011;7065;50.880;5.502;2023-12-28T10:00:57;10.43;;;2.22;;
13981;SDS011;7065;50.880;5.502;2023-12-28T10:03:24;9.18;;;2.83;;
13981;SDS011;7065;50.880;5.502;2023-12-28T10:05:50;7.05;;;1.92;;
13981;SDS011;7065;50.880;5.502;2023-12-28T10:08:15;5.78;;;2.40;;
13981;SDS011;7065;50.880;5.502;2023-12-28T10:10:42;12.98;;;2.70;;
13981;SDS011;7065;50.880;5.502;2023-12-28T10:13:09;8.13;;;2.17;;
13981;SDS011;7065;50.880;5.502;2023-12-28T10:15:40;12.75;;;2.47;;
13981;SDS011;7065;50.880;5.502;2023-12-28T10:18:06;12.50;;;2.83;;
13981;SDS011;7065;50.880;5.502;2023-12-28T10:20:31;9.50;;;2.30;;
13981;SDS011;7065;50.880;5.502;2023-12-28T10:22:58;9.95;;;2.47;;
13981;SDS011;7065;50.880;5.502;2023-12-28T10:25:24;13.25;;;2.50;;
13981;SDS011;7065;50.880;5.502;2023-12-28T10:27:50;10.98;;;2.38;;
13981;SDS011;7065;50.880;5.502;2023-12-28T10:30:17;9.45;;;2.60;;
13981;SDS011;7065;50.880;5.502;2023-12-28T10:32:45;8.57;;;2.40;;
13981;SDS011;7065;50.880;5.502;2023-12-28T10:35:11;9.70;;;2.30;;
13981;SDS011;7065;50.880;5.502;2023-12-28T10:37:39;11.10;;;2.67;;
13981;SDS011;7065;50.880;5.502;2023-12-28T10:40:07;6.80;;;2.08;;
13981;SDS011;7065;50.880;5.502;2023-12-28T10:42:58;9.32;;;2.40;;
13981;SDS011;7065;50.880;5.502;2023-12-28T10:45:32;10.73;;;2.42;;
13981;SDS011;7065;50.880;5.502;2023-12-28T10:48:06;7.75;;;2.30;;
13981;SDS011;7065;50.880;5.502;2023-12-28T10:50:38;10.38;;;2.15;;
13981;SDS011;7065;50.880;5.502;2023-12-28T10:53:15;12.18;;;2.80;;
13981;SDS011;7065;50.880;5.502;2023-12-28T11:01:37;12.05;;;2.53;;
13981;SDS011;7065;50.880;5.502;2023-12-28T11:06:47;13.35;;;2.65;;
13981;SDS011;7065;50.880;5.502;2023-12-28T11:09:14;9.07;;;2.38;;
13981;SDS011;7065;50.880;5.502;2023-12-28T11:11:41;9.43;;;2.47;;
13981;SDS011;7065;50.880;5.502;2023-12-28T11:14:09;8.60;;;2.38;;
13981;SDS011;7065;50.880;5.502;2023-12-28T11:16:36;12.25;;;2.97;;
13981;SDS011;7065;50.880;5.502;2023-12-28T11:19:03;10.48;;;2.20;;
13981;SDS011;7065;50.880;5.502;2023-12-28T11:21:30;11.57;;;3.08;;
13981;SDS011;7065;50.880;5.502;2023-12-28T11:23:57;9.27;;;2.22;;
13981;SDS011;7065;50.880;5.502;2023-12-28T11:26:23;7.32;;;1.90;;
13981;SDS011;7065;50.880;5.502;2023-12-28T11:28:49;8.25;;;2.13;;
13981;SDS011;7065;50.880;5.502;2023-12-28T11:31:17;8.90;;;2.03;;
13981;SDS011;7065;50.880;5.502;2023-12-28T11:33:43;11.60;;;2.70;;
13981;SDS011;7065;50.880;5.502;2023-12-28T11:36:10;9.38;;;2.38;;
13981;SDS011;7065;50.880;5.502;2023-12-28T11:38:36;9.98;;;2.30;;
13981;SDS011;7065;50.880;5.502;2023-12-28T11:41:05;10.77;;;2.33;;
13981;SDS011;7065;50.880;5.502;2023-12-28T11:43:34;11.02;;;2.78;;
13981;SDS011;7065;50.880;5.502;2023-12-28T11:46:00;7.65;;;2.53;;
13981;SDS011;7065;50.880;5.502;2023-12-28T11:48:27;7.82;;;2.42;;
13981;SDS011;7065;50.880;5.502;2023-12-28T11:50:57;12.07;;;2.35;;
13981;SDS011;7065;50.880;5.502;2023-12-28T11:53:25;9.40;;;2.25;;
13981;SDS011;7065;50.880;5.502;2023-12-28T11:55:51;8.18;;;2.08;;
13981;SDS011;7065;50.880;5.502;2023-12-28T11:58:24;9.65;;;2.53;;
13981;SDS011;7065;50.880;5.502;2023-12-28T12:00:49;10.48;;;2.65;;
13981;SDS011;7065;50.880;5.502;2023-12-28T12:03:15;9.63;;;2.58;;
13981;SDS011;7065;50.880;5.502;2023-12-28T12:05:41;8.02;;;2.30;;
13981;SDS011;7065;50.880;5.502;2023-12-28T12:08:06;10.15;;;2.63;;
13981;SDS011;7065;50.880;5.502;2023-12-28T12:10:35;8.23;;;2.67;;
13981;SDS011;7065;50.880;5.502;2023-12-28T12:13:01;11.05;;;3.03;;
13981;SDS011;7065;50.880;5.502;2023-12-28T12:15:28;8.02;;;1.95;;
13981;SDS011;7065;50.880;5.502;2023-12-28T12:17:54;10.18;;;2.47;;
13981;SDS011;7065;50.880;5.502;2023-12-28T12:20:20;6.35;;;2.30;;
13981;SDS011;7065;50.880;5.502;2023-12-28T12:22:46;10.15;;;3.00;;
13981;SDS011;7065;50.880;5.502;2023-12-28T12:25:12;7.40;;;2.30;;
13981;SDS011;7065;50.880;5.502;2023-12-28T12:27:37;7.90;;;2.03;;
13981;SDS011;7065;50.880;5.502;2023-12-28T12:30:06;9.77;;;2.55;;
13981;SDS011;7065;50.880;5.502;2023-12-28T12:32:32;7.15;;;2.38;;
13981;SDS011;7065;50.880;5.502;2023-12-28T12:35:02;7.93;;;2.25;;
13981;SDS011;7065;50.880;5.502;2023-12-28T12:37:28;9.50;;;2.00;;
13981;SDS011;7065;50.880;5.502;2023-12-28T12:39:54;8.75;;;2.30;;
13981;SDS011;7065;50.880;5.502;2023-12-28T12:42:20;11.52;;;3.13;;
13981;SDS011;7065;50.880;5.502;2023-12-28T12:44:46;5.20;;;1.92;;
13981;SDS011;7065;50.880;5.502;2023-12-28T12:47:12;9.13;;;2.33;;
13981;SDS011;7065;50.880;5.502;2023-12-28T12:49:38;9.45;;;2.50;;
13981;SDS011;7065;50.880;5.502;2023-12-28T12:52:04;9.57;;;2.17;;
13981;SDS011;7065;50.880;5.502;2023-12-28T12:54:32;6.97;;;2.03;;
13981;SDS011;7065;50.880;5.502;2023-12-28T12:56:59;8.27;;;2.05;;
13981;SDS011;7065;50.880;5.502;2023-12-28T12:59:25;10.75;;;2.25;;
13981;SDS011;7065;50.880;5.502;2023-12-28T13:01:51;7.88;;;2.20;;
13981;SDS011;7065;50.880;5.502;2023-12-28T13:04:18;8.18;;;2.00;;
13981;SDS011;7065;50.880;5.502;2023-12-28T13:06:44;7.53;;;1.83;;
13981;SDS011;7065;50.880;5.502;2023-12-28T13:09:10;7.78;;;2.30;;
13981;SDS011;7065;50.880;5.502;2023-12-28T13:11:36;8.77;;;2.35;;
13981;SDS011;7065;50.880;5.502;2023-12-28T13:14:03;12.88;;;2.85;;
13981;SDS011;7065;50.880;5.502;2023-12-28T13:16:29;9.23;;;2.28;;
13981;SDS011;7065;50.880;5.502;2023-12-28T13:18:55;6.47;;;2.30;;
13981;SDS011;7065;50.880;5.502;2023-12-28T13:21:21;9.05;;;2.10;;
13981;SDS011;7065;50.880;5.502;2023-12-28T13:23:47;11.90;;;2.95;;
13981;SDS011;7065;50.880;5.502;2023-12-28T13:26:12;8.10;;;2.53;;
13981;SDS011;7065;50.880;5.502;2023-12-28T13:28:38;10.82;;;3.10;;
13981;SDS011;7065;50.880;5.502;2023-12-28T13:31:04;10.95;;;2.50;;
13981;SDS011;7065;50.880;5.502;2023-12-28T13:33:29;8.23;;;2.08;;
13981;SDS011;7065;50.880;5.502;2023-12-28T13:35:55;8.93;;;3.00;;
13981;SDS011;7065;50.880;5.502;2023-12-28T13:38:21;11.20;;;2.38;;
13981;SDS011;7065;50.880;5.502;2023-12-28T13:40:47;9.63;;;2.40;;
13981;SDS011;7065;50.880;5.502;2023-12-28T13:43:12;10.52;;;2.72;;
13981;SDS011;7065;50.880;5.502;2023-12-28T13:45:38;6.63;;;2.20;;
13981;SDS011;7065;50.880;5.502;2023-12-28T13:48:04;11.68;;;2.42;;
13981;SDS011;7065;50.880;5.502;2023-12-28T13:50:30;9.10;;;1.98;;
13981;SDS011;7065;50.880;5.502;2023-12-28T13:52:57;10.63;;;2.35;;
13981;SDS011;7065;50.880;5.502;2023-12-28T13:55:23;8.80;;;2.20;;
13981;SDS011;7065;50.880;5.502;2023-12-28T13:57:48;12.88;;;2.50;;
13981;SDS011;7065;50.880;5.502;2023-12-28T14:00:14;7.35;;;2.10;;
13981;SDS011;7065;50.880;5.502;2023-12-28T14:02:40;10.70;;;2.92;;
13981;SDS011;7065;50.880;5.502;2023-12-28T14:05:06;13.10;;;2.53;;
13981;SDS011;7065;50.880;5.502;2023-12-28T14:07:32;7.40;;;2.60;;
13981;SDS011;7065;50.880;5.502;2023-12-28T14:09:58;11.05;;;2.63;;
13981;SDS011;7065;50.880;5.502;2023-12-28T14:12:24;11.55;;;2.83;;
13981;SDS011;7065;50.880;5.502;2023-12-28T14:14:49;13.32;;;2.35;;
13981;SDS011;7065;50.880;5.502;2023-12-28T14:17:15;7.80;;;2.50;;
13981;SDS011;7065;50.880;5.502;2023-12-28T14:19:44;9.50;;;2.05;;
13981;SDS011;7065;50.880;5.502;2023-12-28T14:22:11;8.40;;;2.03;;
13981;SDS011;7065;50.880;5.502;2023-12-28T14:24:37;11.13;;;2.60;;
13981;SDS011;7065;50.880;5.502;2023-12-28T14:27:03;11.05;;;2.75;;
13981;SDS011;7065;50.880;5.502;2023-12-28T14:29:29;11.23;;;2.03;;
13981;SDS011;7065;50.880;5.502;2023-12-28T14:31:55;11.93;;;2.95;;
13981;SDS011;7065;50.880;5.502;2023-12-28T14:34:22;8.18;;;2.40;;
13981;SDS011;7065;50.880;5.502;2023-12-28T14:36:48;14.30;;;3.10;;
13981;SDS011;7065;50.880;5.502;2023-12-28T14:39:17;7.80;;;2.47;;
13981;SDS011;7065;50.880;5.502;2023-12-28T14:41:45;9.80;;;2.65;;
13981;SDS011;7065;50.880;5.502;2023-12-28T14:44:11;10.15;;;2.30;;
13981;SDS011;7065;50.880;5.502;2023-12-28T14:46:37;9.07;;;2.00;;
13981;SDS011;7065;50.880;5.502;2023-12-28T14:49:03;9.55;;;2.03;;
13981;SDS011;7065;50.880;5.502;2023-12-28T14:51:30;8.13;;;2.15;;
13981;SDS011;7065;50.880;5.502;2023-12-28T14:53:56;6.57;;;2.17;;
13981;SDS011;7065;50.880;5.502;2023-12-28T14:56:21;9.60;;;2.03;;
13981;SDS011;7065;50.880;5.502;2023-12-28T14:58:47;7.05;;;1.63;;
13981;SDS011;7065;50.880;5.502;2023-12-28T15:01:13;7.68;;;1.85;;
13981;SDS011;7065;50.880;5.502;2023-12-28T15:03:40;5.68;;;1.83;;